createdAt,value
2023-03-08T00:01:31.070Z,6.35
2023-03-08T00:05:32.838Z,6.30
2023-03-08T00:09:34.427Z,6.27
2023-03-08T00:13:36.011Z,6.24
2023-03-08T00:17:39.218Z,6.25
2023-03-08T00:21:40.866Z,6.25
2023-03-08T00:25:42.438Z,6.27
2023-03-08T00:29:43.998Z,6.30
2023-03-08T00:33:45.529Z,6.30
2023-03-08T00:37:48.662Z,6.32
2023-03-08T00:41:51.368Z,6.30
2023-03-08T00:45:53.328Z,6.25
2023-03-08T00:49:56.729Z,6.20
2023-03-08T00:53:58.379Z,6.14
2023-03-08T00:57:59.924Z,6.11
2023-03-08T01:02:01.919Z,6.02
2023-03-08T01:06:12.596Z,6.01
2023-03-08T01:10:16.383Z,5.99
2023-03-08T01:14:18.075Z,6.02
2023-03-08T01:18:19.631Z,6.03
2023-03-08T01:22:21.180Z,6.06
2023-03-08T01:26:24.912Z,6.06
2023-03-08T01:30:30.038Z,6.05
2023-03-08T01:34:31.596Z,6.06
2023-03-08T01:38:33.282Z,6.08
2023-03-08T01:42:37.113Z,6.10
2023-03-08T01:46:38.649Z,6.08
2023-03-08T01:51:02.928Z,6.10
2023-03-08T01:55:07.853Z,6.10
2023-03-08T01:59:10.420Z,6.06
2023-03-08T02:03:12.301Z,6.10
2023-03-08T02:07:14.023Z,6.11
2023-03-08T02:11:18.868Z,6.11
2023-03-08T02:15:21.793Z,6.10
2023-03-08T02:19:39.805Z,6.10
2023-03-08T02:23:41.352Z,6.03
2023-03-08T02:27:43.534Z,5.99
2023-03-08T02:31:45.047Z,5.93
2023-03-08T02:35:46.728Z,5.92
2023-03-08T02:39:48.354Z,5.88
2023-03-08T02:43:49.886Z,5.88
2023-03-08T02:47:51.967Z,5.87
2023-03-08T02:51:53.729Z,5.84
2023-03-08T02:55:55.915Z,5.85
2023-03-08T02:59:57.628Z,5.83
2023-03-08T03:04:01.722Z,5.83
2023-03-08T03:08:03.829Z,5.83
2023-03-08T03:12:05.917Z,5.80
2023-03-08T03:16:13.609Z,5.80
2023-03-08T03:20:15.771Z,5.78
2023-03-08T03:24:17.572Z,5.77
2023-03-08T03:28:27.480Z,5.78
2023-03-08T03:32:29.306Z,5.80
2023-03-08T03:36:31.149Z,5.78
2023-03-08T03:40:33.857Z,5.75
2023-03-08T03:44:38.067Z,5.77
2023-03-08T03:48:41.010Z,5.74
2023-03-08T03:52:43.629Z,5.77
2023-03-08T03:56:45.315Z,5.73
2023-03-08T04:00:47.724Z,5.74
2023-03-08T04:04:58.794Z,5.70
2023-03-08T04:09:07.536Z,5.69
2023-03-08T04:13:13.157Z,5.70
2023-03-08T04:17:16.390Z,5.74
2023-03-08T04:21:28.236Z,5.74
2023-03-08T04:25:30.863Z,5.70
2023-03-08T04:29:35.037Z,5.73
2023-03-08T04:33:37.419Z,5.69
2023-03-08T04:37:40.190Z,5.67
2023-03-08T04:41:46.363Z,5.65
2023-03-08T04:46:01.713Z,5.65
2023-03-08T04:50:03.927Z,5.62
2023-03-08T04:54:07.403Z,5.60
2023-03-08T04:58:13.115Z,5.60
2023-03-08T05:02:15.005Z,5.65
2023-03-08T05:06:17.530Z,5.60
2023-03-08T05:10:21.099Z,5.62
2023-03-08T05:14:22.764Z,5.65
2023-03-08T05:18:25.202Z,5.63
2023-03-08T05:22:26.963Z,5.63
2023-03-08T05:26:31.658Z,5.59
2023-03-08T05:30:33.432Z,5.59
2023-03-08T05:34:35.117Z,5.60
2023-03-08T05:38:39.594Z,5.62
2023-03-08T05:42:43.808Z,5.62
2023-03-08T05:46:46.184Z,5.63
2023-03-08T05:50:48.046Z,5.62
2023-03-08T05:54:49.777Z,5.63
2023-03-08T05:58:55.334Z,5.65
2023-03-08T06:03:00.693Z,5.65
2023-03-08T06:07:02.452Z,5.65
2023-03-08T06:11:10.041Z,5.66
2023-03-08T06:15:13.134Z,5.69
2023-03-08T06:19:15.723Z,5.67
2023-03-08T06:23:18.129Z,5.70
2023-03-08T06:27:19.855Z,5.73
2023-03-08T06:31:23.727Z,5.78
2023-03-08T06:35:26.615Z,5.81
2023-03-08T06:39:34.114Z,5.81
2023-03-08T06:43:36.654Z,5.75
2023-03-08T06:47:38.421Z,5.83
2023-03-08T06:51:40.412Z,5.84
2023-03-08T06:55:42.377Z,5.83
2023-03-08T06:59:44.091Z,5.84
2023-03-08T07:03:47.926Z,5.87
2023-03-08T07:07:49.793Z,5.90
2023-03-08T07:11:51.356Z,5.92
2023-03-08T07:15:53.022Z,5.93
2023-03-08T07:19:54.651Z,5.96
2023-03-08T07:23:56.280Z,5.93
2023-03-08T07:28:00.261Z,5.90
2023-03-08T07:32:01.815Z,5.78
2023-03-08T07:36:03.668Z,5.69
2023-03-08T07:40:06.699Z,5.59
2023-03-08T07:44:08.514Z,5.59
2023-03-08T07:48:10.073Z,5.45
2023-03-08T07:52:11.654Z,5.38
2023-03-08T07:56:13.281Z,5.35
2023-03-08T08:00:15.256Z,5.27
2023-03-08T08:04:16.984Z,5.19
2023-03-08T08:08:18.614Z,5.23
2023-03-08T08:12:20.169Z,5.23
2023-03-08T08:16:21.970Z,5.12
2023-03-08T08:20:25.159Z,5.15
2023-03-08T08:24:27.642Z,5.05
2023-03-08T08:28:29.485Z,5.04
2023-03-08T08:32:32.601Z,5.01
2023-03-08T08:36:34.298Z,5.01
2023-03-08T08:40:37.007Z,4.94
2023-03-08T08:44:38.600Z,4.86
2023-03-08T08:48:40.871Z,4.80
2023-03-08T08:52:42.547Z,4.83
2023-03-08T08:56:44.402Z,4.72
2023-03-08T09:00:46.644Z,4.67
2023-03-08T09:04:48.340Z,4.68
2023-03-08T09:08:51.040Z,4.67
2023-03-08T09:12:52.689Z,4.62
2023-03-08T09:16:54.398Z,4.59
2023-03-08T09:20:56.039Z,4.50
2023-03-08T09:24:57.641Z,4.42
2023-03-08T09:29:04.837Z,4.51
2023-03-08T09:33:06.604Z,4.59
2023-03-08T09:37:09.486Z,4.56
2023-03-08T09:41:23.134Z,4.64
2023-03-08T09:45:28.158Z,4.57
2023-03-08T09:49:32.237Z,4.56
2023-03-08T09:53:44.602Z,4.47
2023-03-08T09:57:52.430Z,4.47
2023-03-08T10:02:12.354Z,4.59
2023-03-08T10:06:26.083Z,4.59
2023-03-08T10:10:45.240Z,4.64
2023-03-08T10:14:50.546Z,4.74
2023-03-08T10:19:07.126Z,4.83
2023-03-08T10:23:19.396Z,4.93
2023-03-08T10:27:31.425Z,4.99
2023-03-08T10:31:33.815Z,5.04
2023-03-08T10:35:58.672Z,5.05
2023-03-08T10:40:05.483Z,5.11
2023-03-08T10:44:13.480Z,5.15
2023-03-08T10:48:20.869Z,5.26
2023-03-08T10:52:27.836Z,5.32
2023-03-08T10:56:44.793Z,5.47
2023-03-08T11:00:54.301Z,5.49
2023-03-08T11:04:59.130Z,5.56
2023-03-08T11:09:02.866Z,5.56
2023-03-08T11:13:16.487Z,5.69
2023-03-08T11:17:32.092Z,5.83
2023-03-08T11:21:38.634Z,5.88
2023-03-08T11:26:07.500Z,5.96
2023-03-08T11:30:20.965Z,6.02
2023-03-08T11:34:47.814Z,6.06
2023-03-08T11:39:09.443Z,6.14
2023-03-08T11:43:19.914Z,6.16
2023-03-08T11:47:44.978Z,6.19
2023-03-08T11:52:00.909Z,6.20
2023-03-08T11:56:12.073Z,6.27
2023-03-08T12:00:28.155Z,6.33
2023-03-08T12:04:32.776Z,6.36
2023-03-08T12:08:39.905Z,6.35
2023-03-08T12:12:50.970Z,6.40
2023-03-08T12:16:56.293Z,6.48
2023-03-08T12:21:14.491Z,6.54
2023-03-08T12:25:22.157Z,6.58
2023-03-08T12:29:34.841Z,6.69
2023-03-08T12:33:36.803Z,6.83
2023-03-08T12:37:39.265Z,6.96
2023-03-08T12:41:40.879Z,7.11
2023-03-08T12:46:06.927Z,7.29
2023-03-08T12:50:16.186Z,7.55
2023-03-08T12:54:23.376Z,7.70
2023-03-08T12:58:25.026Z,7.79
2023-03-08T13:02:32.491Z,7.91
2023-03-08T13:06:46.166Z,7.99
2023-03-08T13:10:50.731Z,8.02
2023-03-08T13:15:10.908Z,8.07
2023-03-08T13:19:20.762Z,8.14
2023-03-08T13:23:32.572Z,8.22
2023-03-08T13:28:11.445Z,8.28
2023-03-08T13:32:18.690Z,8.45
2023-03-08T13:36:39.048Z,8.57
2023-03-08T13:40:51.951Z,8.76
2023-03-08T13:45:06.016Z,8.88
2023-03-08T13:49:14.254Z,9.00
2023-03-08T13:53:20.311Z,9.06
2023-03-08T13:57:36.420Z,9.12
2023-03-08T14:01:47.545Z,9.13
2023-03-08T14:05:50.230Z,9.19
2023-03-08T14:09:51.912Z,9.20
2023-03-08T14:13:55.657Z,9.22
2023-03-08T14:17:57.879Z,9.24
2023-03-08T14:22:09.742Z,9.26
2023-03-08T14:26:34.332Z,9.26
2023-03-08T14:30:46.872Z,9.30
2023-03-08T14:34:49.298Z,9.35
2023-03-08T14:38:51.161Z,9.42
2023-03-08T14:42:54.999Z,9.38
2023-03-08T14:46:59.139Z,9.38
2023-03-08T14:51:26.630Z,9.35
2023-03-08T14:55:34.038Z,9.45
2023-03-08T14:59:40.077Z,9.52
2023-03-08T15:03:41.656Z,9.59
2023-03-08T15:07:44.677Z,9.73
2023-03-08T15:11:48.983Z,9.71
2023-03-08T15:15:51.198Z,9.74
2023-03-08T15:19:52.742Z,9.80
2023-03-08T15:23:54.766Z,9.88
2023-03-08T15:27:56.446Z,9.98
2023-03-08T15:31:59.223Z,10.09
2023-03-08T15:36:00.843Z,10.13
2023-03-08T15:40:02.774Z,10.18
2023-03-08T15:44:04.356Z,10.25
2023-03-08T15:48:11.420Z,10.32
2023-03-08T15:52:12.966Z,10.32
2023-03-08T15:56:15.136Z,10.43
2023-03-08T16:00:19.126Z,10.44
2023-03-08T16:04:21.054Z,10.43
2023-03-08T16:08:25.028Z,10.34
2023-03-08T16:12:26.661Z,10.20
2023-03-08T16:16:43.978Z,10.13
2023-03-08T16:20:46.326Z,10.07
2023-03-08T16:24:48.584Z,10.01
2023-03-08T16:28:50.135Z,9.95
2023-03-08T16:32:52.804Z,9.91
2023-03-08T16:36:55.159Z,9.88
2023-03-08T16:41:11.645Z,9.89
2023-03-08T16:45:16.315Z,9.81
2023-03-08T16:49:19.822Z,9.81
2023-03-08T16:53:21.726Z,9.85
2023-03-08T16:57:23.355Z,9.83
2023-03-08T17:01:25.549Z,9.80
2023-03-08T17:05:27.331Z,9.75
2023-03-08T17:09:28.976Z,9.71
2023-03-08T17:13:31.715Z,9.65
2023-03-08T17:17:33.246Z,9.63
2023-03-08T17:21:39.094Z,9.56
2023-03-08T17:25:41.325Z,9.50
2023-03-08T17:29:42.836Z,9.48
2023-03-08T17:33:44.805Z,9.48
2023-03-08T17:37:46.764Z,9.41
2023-03-08T17:41:48.392Z,9.38
2023-03-08T17:46:08.635Z,9.35
2023-03-08T17:50:13.187Z,9.31
2023-03-08T17:54:14.829Z,9.26
2023-03-08T17:58:16.534Z,9.22
2023-03-08T18:02:19.059Z,9.24
2023-03-08T18:06:41.029Z,9.24
2023-03-08T18:10:42.674Z,9.23
2023-03-08T18:14:46.262Z,9.19
2023-03-08T18:18:49.709Z,9.19
2023-03-08T18:22:52.180Z,9.15
2023-03-08T18:26:53.956Z,9.15
2023-03-08T18:30:55.600Z,9.13
2023-03-08T18:34:57.437Z,9.12
2023-03-08T18:38:59.074Z,9.12
2023-03-08T18:43:00.749Z,9.12
2023-03-08T18:47:02.532Z,9.13
2023-03-08T18:51:04.340Z,9.12
2023-03-08T18:55:06.214Z,9.10
2023-03-08T18:59:08.199Z,9.10
2023-03-08T19:03:09.792Z,9.06
2023-03-08T19:07:13.030Z,9.06
2023-03-08T19:11:21.779Z,9.12
2023-03-08T19:15:23.443Z,9.10
2023-03-08T19:19:25.842Z,9.10
2023-03-08T19:23:27.394Z,9.12
2023-03-08T19:27:28.972Z,9.13
2023-03-08T19:31:30.839Z,9.19
2023-03-08T19:35:34.310Z,9.23
2023-03-08T19:39:38.029Z,9.23
2023-03-08T19:43:40.076Z,9.26
2023-03-08T19:47:41.969Z,9.22
2023-03-08T19:51:47.364Z,9.22
2023-03-08T19:55:53.209Z,9.19
2023-03-08T19:59:57.664Z,9.16
2023-03-08T20:03:59.630Z,9.15
2023-03-08T20:08:01.203Z,9.12
2023-03-08T20:12:02.882Z,9.12
2023-03-08T20:16:04.816Z,9.13
2023-03-08T20:20:07.315Z,9.12
2023-03-08T20:24:09.035Z,9.16
2023-03-08T20:28:11.186Z,9.15
2023-03-08T20:32:13.526Z,9.16
2023-03-08T20:36:15.596Z,9.15
2023-03-08T20:40:18.001Z,9.15
2023-03-08T20:44:19.526Z,9.17
2023-03-08T20:48:21.162Z,9.15
2023-03-08T20:52:22.781Z,9.16
2023-03-08T20:56:25.942Z,9.15
2023-03-08T21:00:27.494Z,9.17
2023-03-08T21:04:29.826Z,9.16
2023-03-08T21:08:31.446Z,9.15
2023-03-08T21:12:33.021Z,9.13
2023-03-08T21:16:34.852Z,9.15
2023-03-08T21:20:38.118Z,9.15
2023-03-08T21:24:39.719Z,9.13
2023-03-08T21:28:41.346Z,9.13
2023-03-08T21:32:43.008Z,9.15
2023-03-08T21:36:44.925Z,9.16
2023-03-08T21:40:46.464Z,9.17
2023-03-08T21:44:48.044Z,9.19
2023-03-08T21:48:50.140Z,9.19
2023-03-08T21:52:51.918Z,9.20
2023-03-08T21:56:53.527Z,9.22
2023-03-08T22:00:55.152Z,9.23
2023-03-08T22:04:57.271Z,9.23
2023-03-08T22:08:58.888Z,9.26
2023-03-08T22:13:01.097Z,9.26
2023-03-08T22:17:03.269Z,9.26
2023-03-08T22:21:05.160Z,9.26
2023-03-08T22:25:07.648Z,9.27
2023-03-08T22:29:09.241Z,9.27
2023-03-08T22:33:12.081Z,9.31
2023-03-08T22:37:13.691Z,9.30
2023-03-08T22:41:24.632Z,9.32
2023-03-08T22:45:26.361Z,9.37
2023-03-08T22:49:28.008Z,9.40
2023-03-08T22:53:29.692Z,9.48
2023-03-08T22:57:31.465Z,9.50
2023-03-08T23:01:33.384Z,9.58
2023-03-08T23:05:35.107Z,9.59
2023-03-08T23:09:36.892Z,9.67
2023-03-08T23:13:39.460Z,9.68
2023-03-08T23:17:41.097Z,9.73
2023-03-08T23:21:44.463Z,9.71
2023-03-08T23:25:46.150Z,9.77
2023-03-08T23:29:47.874Z,9.78
2023-03-08T23:33:50.258Z,9.78
2023-03-08T23:37:52.082Z,9.81
2023-03-08T23:41:53.603Z,9.85
2023-03-08T23:45:55.272Z,9.86
2023-03-08T23:49:56.843Z,9.91
2023-03-08T23:54:01.299Z,9.93
2023-03-08T23:58:03.174Z,9.92
